createdAt,value
2019-01-16T00:00:11.801Z,1007.26
2019-01-16T00:01:11.764Z,1007.33
2019-01-16T00:02:11.791Z,1007.32
2019-01-16T00:03:11.733Z,1007.28
2019-01-16T00:04:11.803Z,1007.33
2019-01-16T00:05:11.730Z,1007.26
2019-01-16T00:06:11.818Z,1007.29
2019-01-16T00:07:11.693Z,1007.30
2019-01-16T00:08:11.728Z,1007.36
2019-01-16T00:09:11.668Z,1007.30
2019-01-16T00:10:11.768Z,1007.25
2019-01-16T00:11:11.643Z,1007.26
2019-01-16T00:12:11.660Z,1007.27
2019-01-16T00:13:11.644Z,1007.21
2019-01-16T00:14:11.668Z,1007.28
2019-01-16T00:15:11.614Z,1007.35
2019-01-16T00:16:11.685Z,1007.26
2019-01-16T00:17:11.579Z,1007.30
2019-01-16T00:18:17.029Z,1007.28
2019-01-16T00:19:12.553Z,1007.29
2019-01-16T00:20:11.642Z,1007.31
2019-01-16T00:21:11.536Z,1007.31
2019-01-16T00:22:11.620Z,1007.27
2019-01-16T00:23:11.513Z,1007.24
2019-01-16T00:24:11.532Z,1007.21
2019-01-16T00:25:11.507Z,1007.36
2019-01-16T00:26:11.550Z,1007.23
2019-01-16T00:27:11.470Z,1007.24
2019-01-16T00:28:11.561Z,1007.22
2019-01-16T00:29:11.449Z,1007.24
2019-01-16T00:30:11.510Z,1007.14
2019-01-16T00:31:11.433Z,1007.13
2019-01-16T00:32:13.433Z,1007.15
2019-01-16T00:33:11.398Z,1007.14
2019-01-16T00:34:19.386Z,1007.16
2019-01-16T00:35:11.395Z,1007.08
2019-01-16T00:36:11.413Z,1007.13
2019-01-16T00:37:11.362Z,1007.14
2019-01-16T00:38:11.427Z,1007.08
2019-01-16T00:39:11.332Z,1007.00
2019-01-16T00:40:11.358Z,1007.03
2019-01-16T00:41:11.711Z,1006.99
2019-01-16T00:42:11.345Z,1006.98
2019-01-16T00:43:11.302Z,1006.92
2019-01-16T00:44:11.357Z,1006.90
2019-01-16T00:45:11.345Z,1006.87
2019-01-16T00:46:11.268Z,1006.85
2019-01-16T00:47:11.246Z,1006.92
2019-01-16T00:48:11.282Z,1006.95
2019-01-16T00:49:11.226Z,1007.00
2019-01-16T00:50:11.299Z,1006.98
2019-01-16T00:51:11.213Z,1006.93
2019-01-16T00:52:11.209Z,1006.95
2019-01-16T00:53:11.176Z,1006.87
2019-01-16T00:54:11.222Z,1006.91
2019-01-16T00:55:11.156Z,1006.83
2019-01-16T00:56:11.280Z,1006.85
2019-01-16T00:57:11.140Z,1006.81
2019-01-16T00:58:11.146Z,1006.89
2019-01-16T00:59:11.239Z,1006.92
2019-01-16T01:00:11.160Z,1006.91
2019-01-16T01:01:11.107Z,1006.86
2019-01-16T01:02:11.174Z,1006.88
2019-01-16T01:03:11.068Z,1006.85
2019-01-16T01:04:11.086Z,1006.79
2019-01-16T01:05:11.047Z,1006.81
2019-01-16T01:06:11.137Z,1006.85
2019-01-16T01:07:11.022Z,1006.81
2019-01-16T01:08:11.112Z,1006.81
2019-01-16T01:09:11.002Z,1006.80
2019-01-16T01:10:11.026Z,1006.80
2019-01-16T01:11:10.997Z,1006.87
2019-01-16T01:12:11.039Z,1006.84
2019-01-16T01:13:10.957Z,1006.83
2019-01-16T01:14:11.052Z,1006.85
2019-01-16T01:15:10.933Z,1006.81
2019-01-16T01:16:13.042Z,1006.84
2019-01-16T01:17:10.912Z,1006.85
2019-01-16T01:18:17.942Z,1006.82
2019-01-16T01:19:10.892Z,1006.77
2019-01-16T01:20:19.902Z,1006.79
2019-01-16T01:21:10.886Z,1006.78
2019-01-16T01:22:10.905Z,1006.76
2019-01-16T01:23:10.848Z,1006.71
2019-01-16T01:24:11.943Z,1006.69
2019-01-16T01:25:10.826Z,1006.71
2019-01-16T01:26:10.855Z,1006.71
2019-01-16T01:27:10.808Z,1006.73
2019-01-16T01:28:10.845Z,1006.72
2019-01-16T01:29:10.785Z,1006.66
2019-01-16T01:30:10.854Z,1006.67
2019-01-16T01:31:10.773Z,1006.64
2019-01-16T01:32:10.773Z,1006.66
2019-01-16T01:33:10.739Z,1006.64
2019-01-16T01:34:10.785Z,1006.64
2019-01-16T01:35:10.714Z,1006.59
2019-01-16T01:36:10.824Z,1006.61
2019-01-16T01:37:10.694Z,1006.59
2019-01-16T01:38:10.712Z,1006.57
2019-01-16T01:39:10.670Z,1006.56
2019-01-16T01:40:10.717Z,1006.65
2019-01-16T01:41:10.662Z,1006.63
2019-01-16T01:42:10.731Z,1006.56
2019-01-16T01:43:10.624Z,1006.55
2019-01-16T01:44:10.651Z,1006.62
2019-01-16T01:45:10.602Z,1006.57
2019-01-16T01:46:10.656Z,1006.56
2019-01-16T01:47:10.601Z,1006.55
2019-01-16T01:48:10.670Z,1006.57
2019-01-16T01:49:10.561Z,1006.57
2019-01-16T01:50:10.595Z,1006.65
2019-01-16T01:51:11.897Z,1006.56
2019-01-16T01:52:10.629Z,1006.62
2019-01-16T01:53:10.524Z,1006.54
2019-01-16T01:54:10.608Z,1006.66
2019-01-16T01:55:10.493Z,1006.63
2019-01-16T01:56:10.524Z,1006.64
2019-01-16T01:57:10.507Z,1006.60
2019-01-16T01:58:10.533Z,1006.58
2019-01-16T01:59:10.454Z,1006.60
2019-01-16T02:00:11.921Z,1006.56
2019-01-16T02:01:10.431Z,1006.62
2019-01-16T02:02:12.535Z,1006.63
2019-01-16T02:03:10.406Z,1006.58
2019-01-16T02:04:33.524Z,1006.62
2019-01-16T02:05:10.382Z,1006.60
2019-01-16T02:06:10.387Z,1006.63
2019-01-16T02:07:10.373Z,1006.57
2019-01-16T02:08:10.403Z,1006.60
2019-01-16T02:09:10.338Z,1006.49
2019-01-16T02:10:12.362Z,1006.48
2019-01-16T02:11:10.320Z,1006.55
2019-01-16T02:12:10.356Z,1006.54
2019-01-16T02:13:10.296Z,1006.52
2019-01-16T02:14:10.340Z,1006.49
2019-01-16T02:15:10.273Z,1006.52
2019-01-16T02:16:10.352Z,1006.46
2019-01-16T02:17:10.272Z,1006.48
2019-01-16T02:18:10.265Z,1006.44
2019-01-16T02:19:10.235Z,1006.47
2019-01-16T02:20:10.280Z,1006.47
2019-01-16T02:21:10.208Z,1006.42
2019-01-16T02:22:10.315Z,1006.50
2019-01-16T02:23:10.188Z,1006.49
2019-01-16T02:24:10.200Z,1006.53
2019-01-16T02:25:10.160Z,1006.48
2019-01-16T02:26:10.215Z,1006.48
2019-01-16T02:27:10.152Z,1006.45
2019-01-16T02:28:10.229Z,1006.36
2019-01-16T02:29:10.116Z,1006.33
2019-01-16T02:30:10.139Z,1006.42
2019-01-16T02:31:10.094Z,1006.40
2019-01-16T02:32:10.188Z,1006.35
2019-01-16T02:33:10.074Z,1006.30
2019-01-16T02:34:10.171Z,1006.31
2019-01-16T02:35:10.049Z,1006.25
2019-01-16T02:36:10.080Z,1006.27
2019-01-16T02:37:10.443Z,1006.23
2019-01-16T02:38:10.132Z,1006.24
2019-01-16T02:39:10.010Z,1006.18
2019-01-16T02:40:10.112Z,1006.24
2019-01-16T02:41:09.990Z,1006.22
2019-01-16T02:42:10.020Z,1006.18
2019-01-16T02:43:09.986Z,1006.17
2019-01-16T02:44:10.039Z,1006.16
2019-01-16T02:45:09.956Z,1006.19
2019-01-16T02:46:10.050Z,1006.23
2019-01-16T02:47:09.921Z,1006.23
2019-01-16T02:48:09.983Z,1006.22
2019-01-16T02:49:09.898Z,1006.19
2019-01-16T02:50:09.971Z,1006.24
2019-01-16T02:51:09.874Z,1006.21
2019-01-16T02:52:09.886Z,1006.26
2019-01-16T02:53:09.865Z,1006.20
2019-01-16T02:54:09.898Z,1006.21
2019-01-16T02:55:09.828Z,1006.15
2019-01-16T02:56:09.910Z,1006.13
2019-01-16T02:57:09.811Z,1006.12
2019-01-16T02:58:09.848Z,1006.14
2019-01-16T02:59:09.789Z,1006.14
2019-01-16T03:00:09.835Z,1006.18
2019-01-16T03:01:09.762Z,1006.11
2019-01-16T03:02:09.849Z,1006.10
2019-01-16T03:03:09.758Z,1006.05
2019-01-16T03:04:09.759Z,1006.13
2019-01-16T03:05:09.723Z,1006.14
2019-01-16T03:06:09.772Z,1006.09
2019-01-16T03:07:09.702Z,1006.07
2019-01-16T03:08:09.812Z,1006.10
2019-01-16T03:09:09.681Z,1006.09
2019-01-16T03:10:09.696Z,1006.02
2019-01-16T03:11:09.652Z,1005.99
2019-01-16T03:12:09.712Z,1005.97
2019-01-16T03:13:09.644Z,1006.07
2019-01-16T03:14:09.727Z,1006.05
2019-01-16T03:15:09.611Z,1006.02
2019-01-16T03:16:09.640Z,1006.00
2019-01-16T03:17:09.585Z,1005.97
2019-01-16T03:18:09.677Z,1005.98
2019-01-16T03:19:09.564Z,1005.90
2019-01-16T03:20:09.662Z,1006.02
2019-01-16T03:21:09.544Z,1006.02
2019-01-16T03:22:09.574Z,1005.94
2019-01-16T03:23:09.551Z,1005.92
2019-01-16T03:24:09.587Z,1005.94
2019-01-16T03:25:09.502Z,1005.93
2019-01-16T03:26:09.498Z,1005.89
2019-01-16T03:27:09.488Z,1005.86
2019-01-16T03:28:09.545Z,1005.89
2019-01-16T03:29:09.453Z,1005.82
2019-01-16T03:30:09.533Z,1005.88
2019-01-16T03:31:09.430Z,1005.77
2019-01-16T03:32:09.441Z,1005.85
2019-01-16T03:33:09.449Z,1005.82
2019-01-16T03:34:24.413Z,1005.90
2019-01-16T03:35:09.530Z,1005.85
2019-01-16T03:36:10.386Z,1005.81
2019-01-16T03:37:09.414Z,1005.88
2019-01-16T03:38:09.418Z,1005.87
2019-01-16T03:39:09.358Z,1005.78
2019-01-16T03:40:09.427Z,1005.81
2019-01-16T03:41:09.319Z,1005.76
2019-01-16T03:42:09.419Z,1005.76
2019-01-16T03:43:09.296Z,1005.76
2019-01-16T03:44:09.350Z,1005.74
2019-01-16T03:45:09.277Z,1005.78
2019-01-16T03:46:09.335Z,1005.71
2019-01-16T03:47:09.252Z,1005.59
2019-01-16T03:48:09.345Z,1005.69
2019-01-16T03:49:13.598Z,1005.65
2019-01-16T03:50:09.258Z,1005.63
2019-01-16T03:51:09.218Z,1005.62
2019-01-16T03:52:09.268Z,1005.59
2019-01-16T03:53:09.188Z,1005.63
2019-01-16T03:54:09.217Z,1005.59
2019-01-16T03:55:09.162Z,1005.61
2019-01-16T03:56:09.198Z,1005.57
2019-01-16T03:57:09.145Z,1005.52
2019-01-16T03:58:09.208Z,1005.53
2019-01-16T03:59:09.132Z,1005.48
2019-01-16T04:00:09.222Z,1005.55
2019-01-16T04:01:09.097Z,1005.48
2019-01-16T04:02:09.143Z,1005.51
2019-01-16T04:03:09.077Z,1005.50
2019-01-16T04:04:09.177Z,1005.53
2019-01-16T04:05:09.056Z,1005.49
2019-01-16T04:06:09.056Z,1005.49
2019-01-16T04:07:09.034Z,1005.53
2019-01-16T04:08:09.074Z,1005.50
2019-01-16T04:09:09.032Z,1005.42
2019-01-16T04:10:09.084Z,1005.47
2019-01-16T04:11:08.987Z,1005.41
2019-01-16T04:12:08.995Z,1005.43
2019-01-16T04:13:08.978Z,1005.42
2019-01-16T04:14:09.034Z,1005.38
2019-01-16T04:15:08.941Z,1005.44
2019-01-16T04:16:09.024Z,1005.42
2019-01-16T04:17:09.341Z,1005.44
2019-01-16T04:18:10.983Z,1005.38
2019-01-16T04:19:08.913Z,1005.31
2019-01-16T04:20:15.921Z,1005.28
2019-01-16T04:21:08.876Z,1005.29
2019-01-16T04:22:09.889Z,1005.31
2019-01-16T04:23:08.855Z,1005.33
2019-01-16T04:24:08.902Z,1005.26
2019-01-16T04:25:08.897Z,1005.25
2019-01-16T04:26:08.892Z,1005.29
2019-01-16T04:27:08.810Z,1005.27
2019-01-16T04:28:08.904Z,1005.25
2019-01-16T04:29:08.838Z,1005.23
2019-01-16T04:30:08.817Z,1005.22
2019-01-16T04:31:08.780Z,1005.19
2019-01-16T04:32:08.824Z,1005.19
2019-01-16T04:33:08.745Z,1005.12
2019-01-16T04:34:08.843Z,1005.14
2019-01-16T04:35:08.743Z,1005.11
2019-01-16T04:36:08.755Z,1005.01
2019-01-16T04:37:08.714Z,1005.11
2019-01-16T04:38:08.763Z,1005.08
2019-01-16T04:39:08.690Z,1005.01
2019-01-16T04:40:08.701Z,1005.03
2019-01-16T04:41:08.660Z,1005.01
2019-01-16T04:42:08.690Z,1004.97
2019-01-16T04:43:08.652Z,1005.04
2019-01-16T04:44:09.979Z,1004.96
2019-01-16T04:45:08.629Z,1004.97
2019-01-16T04:46:08.613Z,1004.95
2019-01-16T04:47:08.601Z,1004.84
2019-01-16T04:48:08.628Z,1004.98
2019-01-16T04:49:08.569Z,1004.95
2019-01-16T04:50:08.672Z,1004.91
2019-01-16T04:51:08.546Z,1004.89
2019-01-16T04:52:08.553Z,1004.96
2019-01-16T04:53:08.538Z,1004.94
2019-01-16T04:54:08.565Z,1004.93
2019-01-16T04:55:08.529Z,1004.86
2019-01-16T04:56:08.580Z,1004.84
2019-01-16T04:57:08.485Z,1004.88
2019-01-16T04:58:08.491Z,1004.96
2019-01-16T04:59:08.473Z,1004.91
2019-01-16T05:00:08.533Z,1004.81
2019-01-16T05:01:08.437Z,1004.80
2019-01-16T05:02:08.519Z,1004.88
2019-01-16T05:03:08.414Z,1004.80
2019-01-16T05:04:15.393Z,1004.87
2019-01-16T05:05:08.406Z,1004.83
2019-01-16T05:06:23.402Z,1004.91
2019-01-16T05:07:08.374Z,1004.92
2019-01-16T05:08:09.783Z,1004.91
2019-01-16T05:09:08.347Z,1004.84
2019-01-16T05:10:08.398Z,1004.84
2019-01-16T05:11:08.330Z,1004.74
2019-01-16T05:12:08.387Z,1004.82
2019-01-16T05:13:08.306Z,1004.80
2019-01-16T05:14:08.403Z,1004.81
2019-01-16T05:15:08.302Z,1004.75
2019-01-16T05:16:08.309Z,1004.70
2019-01-16T05:17:08.271Z,1004.74
2019-01-16T05:18:08.362Z,1004.68
2019-01-16T05:19:08.248Z,1004.74
2019-01-16T05:20:08.268Z,1004.76
2019-01-16T05:21:08.217Z,1004.72
2019-01-16T05:22:08.248Z,1004.66
2019-01-16T05:23:08.197Z,1004.64
2019-01-16T05:24:08.265Z,1004.67
2019-01-16T05:25:08.185Z,1004.70
2019-01-16T05:26:08.293Z,1004.69
2019-01-16T05:27:08.155Z,1004.65
2019-01-16T05:28:08.188Z,1004.59
2019-01-16T05:29:08.127Z,1004.66
2019-01-16T05:30:08.227Z,1004.73
2019-01-16T05:31:08.104Z,1004.63
2019-01-16T05:32:09.137Z,1004.58
2019-01-16T05:33:08.083Z,1004.62
2019-01-16T05:34:08.123Z,1004.64
2019-01-16T05:35:08.075Z,1004.61
2019-01-16T05:36:08.137Z,1004.57
2019-01-16T05:37:08.040Z,1004.57
2019-01-16T05:38:08.048Z,1004.57
2019-01-16T05:39:08.017Z,1004.54
2019-01-16T05:40:08.094Z,1004.56
2019-01-16T05:41:07.995Z,1004.48
2019-01-16T05:42:08.081Z,1004.53
2019-01-16T05:43:07.975Z,1004.43
2019-01-16T05:44:07.990Z,1004.43
2019-01-16T05:45:07.966Z,1004.42
2019-01-16T05:46:08.007Z,1004.50
2019-01-16T05:47:07.931Z,1004.40
2019-01-16T05:48:08.015Z,1004.39
2019-01-16T05:49:07.906Z,1004.41
2019-01-16T05:50:07.962Z,1004.45
2019-01-16T05:51:07.901Z,1004.39
2019-01-16T05:52:07.940Z,1004.38
2019-01-16T05:53:07.866Z,1004.34
2019-01-16T05:54:07.953Z,1004.39
2019-01-16T05:55:07.840Z,1004.46
2019-01-16T05:56:07.910Z,1004.38
2019-01-16T05:57:07.820Z,1004.38
2019-01-16T05:58:07.877Z,1004.33
2019-01-16T05:59:07.799Z,1004.43
2019-01-16T06:00:07.894Z,1004.38
2019-01-16T06:01:07.798Z,1004.30
2019-01-16T06:02:07.804Z,1004.37
2019-01-16T06:03:07.758Z,1004.27
2019-01-16T06:04:07.820Z,1004.35
2019-01-16T06:05:07.729Z,1004.38
2019-01-16T06:06:07.757Z,1004.32
2019-01-16T06:07:07.760Z,1004.28
2019-01-16T06:08:07.754Z,1004.30
2019-01-16T06:09:07.691Z,1004.37
2019-01-16T06:10:07.767Z,1004.33
2019-01-16T06:11:07.691Z,1004.35
2019-01-16T06:12:07.668Z,1004.35
2019-01-16T06:13:07.646Z,1004.40
2019-01-16T06:14:07.682Z,1004.42
2019-01-16T06:15:07.639Z,1004.39
2019-01-16T06:16:07.769Z,1004.39
2019-01-16T06:17:07.602Z,1004.45
2019-01-16T06:18:07.613Z,1004.40
2019-01-16T06:19:07.585Z,1004.41
2019-01-16T06:20:07.621Z,1004.48
2019-01-16T06:21:07.573Z,1004.41
2019-01-16T06:22:07.646Z,1004.40
2019-01-16T06:23:07.545Z,1004.48
2019-01-16T06:24:07.548Z,1004.47
2019-01-16T06:25:07.527Z,1004.41
2019-01-16T06:26:07.585Z,1004.43
2019-01-16T06:27:07.488Z,1004.51
2019-01-16T06:28:07.574Z,1004.49
2019-01-16T06:29:07.474Z,1004.46
2019-01-16T06:30:07.484Z,1004.48
2019-01-16T06:31:07.465Z,1004.48
2019-01-16T06:32:07.500Z,1004.42
2019-01-16T06:33:07.423Z,1004.40
2019-01-16T06:34:07.512Z,1004.47
2019-01-16T06:35:07.409Z,1004.43
2019-01-16T06:36:10.938Z,1004.41
2019-01-16T06:37:07.380Z,1004.45
2019-01-16T06:38:14.402Z,1004.35
2019-01-16T06:39:07.360Z,1004.41
2019-01-16T06:40:08.374Z,1004.42
2019-01-16T06:41:07.338Z,1004.45
2019-01-16T06:42:07.387Z,1004.42
2019-01-16T06:43:07.321Z,1004.50
2019-01-16T06:44:07.378Z,1004.41
2019-01-16T06:45:07.293Z,1004.40
2019-01-16T06:46:07.405Z,1004.41
2019-01-16T06:47:07.290Z,1004.39
2019-01-16T06:48:07.301Z,1004.36
2019-01-16T06:49:07.257Z,1004.41
2019-01-16T06:50:07.314Z,1004.38
2019-01-16T06:51:07.230Z,1004.35
2019-01-16T06:52:07.252Z,1004.37
2019-01-16T06:53:07.217Z,1004.45
2019-01-16T06:54:07.241Z,1004.44
2019-01-16T06:55:07.194Z,1004.39
2019-01-16T06:56:07.259Z,1004.47
2019-01-16T06:57:07.190Z,1004.33
2019-01-16T06:58:07.290Z,1004.38
2019-01-16T06:59:07.144Z,1004.44
2019-01-16T07:00:07.180Z,1004.47
2019-01-16T07:01:07.135Z,1004.38
2019-01-16T07:02:07.220Z,1004.30
2019-01-16T07:03:07.115Z,1004.36
2019-01-16T07:04:07.108Z,1004.40
2019-01-16T07:05:07.076Z,1004.32
2019-01-16T07:06:07.123Z,1004.33
2019-01-16T07:07:07.080Z,1004.36
2019-01-16T07:08:07.136Z,1004.35
2019-01-16T07:09:07.035Z,1004.36
2019-01-16T07:10:07.048Z,1004.32
2019-01-16T07:11:07.020Z,1004.36
2019-01-16T07:12:07.098Z,1004.34
2019-01-16T07:13:06.999Z,1004.29
2019-01-16T07:14:07.076Z,1004.34
2019-01-16T07:15:06.968Z,1004.26
2019-01-16T07:16:06.987Z,1004.28
2019-01-16T07:17:06.973Z,1004.29
2019-01-16T07:18:07.001Z,1004.35
2019-01-16T07:19:06.926Z,1004.22
2019-01-16T07:20:09.891Z,1004.24
2019-01-16T07:21:06.907Z,1004.29
2019-01-16T07:22:06.961Z,1004.24
2019-01-16T07:23:07.863Z,1004.26
2019-01-16T07:24:13.912Z,1004.32
2019-01-16T07:25:06.863Z,1004.29
2019-01-16T07:26:06.955Z,1004.30
2019-01-16T07:27:06.898Z,1004.32
2019-01-16T07:28:06.867Z,1004.29
2019-01-16T07:29:06.820Z,1004.28
2019-01-16T07:30:06.878Z,1004.24
2019-01-16T07:31:06.799Z,1004.29
2019-01-16T07:32:06.925Z,1004.27
2019-01-16T07:33:06.779Z,1004.27
2019-01-16T07:34:06.803Z,1004.28
2019-01-16T07:35:06.753Z,1004.23
2019-01-16T07:36:06.809Z,1004.22
2019-01-16T07:37:06.755Z,1004.34
2019-01-16T07:38:06.823Z,1004.28
2019-01-16T07:39:06.708Z,1004.26
2019-01-16T07:40:06.736Z,1004.22
2019-01-16T07:41:06.688Z,1004.20
2019-01-16T07:42:06.791Z,1004.23
2019-01-16T07:43:06.665Z,1004.27
2019-01-16T07:44:06.762Z,1004.24
2019-01-16T07:45:06.650Z,1004.25
2019-01-16T07:46:06.676Z,1004.25
2019-01-16T07:47:07.055Z,1004.24
2019-01-16T07:48:06.687Z,1004.31
2019-01-16T07:49:06.604Z,1004.33
2019-01-16T07:50:06.699Z,1004.28
2019-01-16T07:51:06.581Z,1004.27
2019-01-16T07:52:06.615Z,1004.34
2019-01-16T07:53:06.575Z,1004.27
2019-01-16T07:54:06.685Z,1004.35
2019-01-16T07:55:06.558Z,1004.29
2019-01-16T07:56:06.541Z,1004.20
2019-01-16T07:57:06.546Z,1004.32
2019-01-16T07:58:06.594Z,1004.31
2019-01-16T07:59:06.495Z,1004.25
2019-01-16T08:00:06.582Z,1004.28
2019-01-16T08:01:06.470Z,1004.30
2019-01-16T08:02:06.479Z,1004.25
2019-01-16T08:03:06.482Z,1004.31
2019-01-16T08:04:06.502Z,1004.26
2019-01-16T08:05:06.432Z,1004.25
2019-01-16T08:06:06.515Z,1004.21
2019-01-16T08:07:06.406Z,1004.22
2019-01-16T08:08:09.936Z,1004.26
2019-01-16T08:09:06.381Z,1004.25
2019-01-16T08:10:13.801Z,1004.22
2019-01-16T08:11:06.415Z,1004.20
2019-01-16T08:12:06.444Z,1004.26
2019-01-16T08:13:06.352Z,1004.24
2019-01-16T08:14:06.373Z,1004.25
2019-01-16T08:15:06.318Z,1004.22
2019-01-16T08:16:06.374Z,1004.25
2019-01-16T08:17:06.299Z,1004.20
2019-01-16T08:18:06.416Z,1004.24
2019-01-16T08:19:06.330Z,1004.23
2019-01-16T08:20:06.300Z,1004.23
2019-01-16T08:21:06.266Z,1004.19
2019-01-16T08:22:06.322Z,1004.18
2019-01-16T08:23:06.258Z,1004.21
2019-01-16T08:24:06.322Z,1004.14
2019-01-16T08:25:06.209Z,1004.18
2019-01-16T08:26:06.235Z,1004.10
2019-01-16T08:27:06.212Z,1004.06
2019-01-16T08:28:06.295Z,1004.11
2019-01-16T08:29:06.172Z,1004.09
2019-01-16T08:30:06.277Z,1004.07
2019-01-16T08:31:06.168Z,1004.07
2019-01-16T08:32:06.175Z,1004.08
2019-01-16T08:33:06.139Z,1004.07
2019-01-16T08:34:06.189Z,1004.09
2019-01-16T08:35:07.361Z,1004.03
2019-01-16T08:36:06.316Z,1004.03
2019-01-16T08:37:06.082Z,1004.05
2019-01-16T08:38:07.209Z,1004.06
2019-01-16T08:39:06.054Z,1004.08
2019-01-16T08:40:06.136Z,1004.00
2019-01-16T08:41:07.336Z,1004.06
2019-01-16T08:42:06.052Z,1004.05
2019-01-16T08:43:06.025Z,1004.04
2019-01-16T08:44:13.441Z,1003.99
2019-01-16T08:45:06.986Z,1004.08
2019-01-16T08:46:06.078Z,1004.08
2019-01-16T08:47:05.966Z,1004.05
2019-01-16T08:48:06.114Z,1004.01
2019-01-16T08:49:05.980Z,1003.97
2019-01-16T08:50:05.998Z,1003.96
2019-01-16T08:51:05.922Z,1004.00
2019-01-16T08:52:06.098Z,1003.98
2019-01-16T08:53:05.915Z,1003.96
2019-01-16T08:54:05.949Z,1003.94
2019-01-16T08:55:05.880Z,1004.08
2019-01-16T08:56:05.952Z,1004.02
2019-01-16T08:57:05.882Z,1004.04
2019-01-16T08:58:05.939Z,1004.02
2019-01-16T08:59:05.850Z,1004.02
2019-01-16T09:00:05.863Z,1004.04
2019-01-16T09:01:05.869Z,1004.02
2019-01-16T09:02:05.863Z,1004.10
2019-01-16T09:03:05.792Z,1003.88
2019-01-16T09:04:05.907Z,1003.96
2019-01-16T09:05:05.769Z,1004.02
2019-01-16T09:06:05.787Z,1004.03
2019-01-16T09:07:05.755Z,1004.03
2019-01-16T09:08:05.804Z,1003.95
2019-01-16T09:09:05.738Z,1004.04
2019-01-16T09:10:05.815Z,1003.99
2019-01-16T09:11:05.705Z,1003.96
2019-01-16T09:12:05.732Z,1004.04
2019-01-16T09:13:05.716Z,1004.00
2019-01-16T09:14:05.809Z,1003.94
2019-01-16T09:15:05.668Z,1003.99
2019-01-16T09:16:05.754Z,1003.97
2019-01-16T09:17:05.637Z,1004.02
2019-01-16T09:18:05.665Z,1003.98
2019-01-16T09:19:05.636Z,1003.94
2019-01-16T09:20:05.682Z,1003.93
2019-01-16T09:21:05.594Z,1003.89
2019-01-16T09:22:05.700Z,1003.88
2019-01-16T09:23:05.574Z,1003.92
2019-01-16T09:24:05.635Z,1003.93
2019-01-16T09:25:05.551Z,1003.90
2019-01-16T09:26:05.620Z,1003.89
2019-01-16T09:27:05.529Z,1003.92
2019-01-16T09:28:05.531Z,1003.85
2019-01-16T09:29:05.528Z,1003.92
2019-01-16T09:30:05.549Z,1003.91
2019-01-16T09:31:05.491Z,1003.86
2019-01-16T09:32:05.567Z,1003.75
2019-01-16T09:33:05.506Z,1003.77
2019-01-16T09:34:05.495Z,1003.76
2019-01-16T09:35:05.442Z,1003.76
2019-01-16T09:36:05.485Z,1003.71
2019-01-16T09:37:05.429Z,1003.71
2019-01-16T09:38:05.500Z,1003.76
2019-01-16T09:39:05.429Z,1003.70
2019-01-16T09:40:12.474Z,1003.77
2019-01-16T09:41:05.378Z,1003.76
2019-01-16T09:42:05.426Z,1003.69
2019-01-16T09:43:06.285Z,1003.68
2019-01-16T09:44:07.384Z,1003.66
2019-01-16T09:45:05.351Z,1003.67
2019-01-16T09:46:05.348Z,1003.75
2019-01-16T09:47:05.315Z,1003.63
2019-01-16T09:48:05.363Z,1003.68
2019-01-16T09:49:05.301Z,1003.77
2019-01-16T09:50:05.414Z,1003.72
2019-01-16T09:51:05.274Z,1003.83
2019-01-16T09:52:05.290Z,1003.70
2019-01-16T09:53:05.250Z,1003.63
2019-01-16T09:54:05.300Z,1003.70
2019-01-16T09:55:05.254Z,1003.78
2019-01-16T09:56:05.313Z,1003.69
2019-01-16T09:57:05.206Z,1003.69
2019-01-16T09:58:05.223Z,1003.69
2019-01-16T09:59:05.186Z,1003.72
2019-01-16T10:00:05.270Z,1003.67
2019-01-16T10:01:05.184Z,1003.65
2019-01-16T10:02:05.249Z,1003.69
2019-01-16T10:03:05.137Z,1003.66
2019-01-16T10:04:05.164Z,1003.59
2019-01-16T10:05:05.135Z,1003.66
2019-01-16T10:06:05.180Z,1003.68
2019-01-16T10:07:05.091Z,1003.64
2019-01-16T10:08:05.189Z,1003.65
2019-01-16T10:09:05.072Z,1003.63
2019-01-16T10:10:05.131Z,1003.58
2019-01-16T10:11:05.061Z,1003.66
2019-01-16T10:12:05.116Z,1003.58
2019-01-16T10:13:05.028Z,1003.56
2019-01-16T10:14:05.024Z,1003.61
2019-01-16T10:15:05.021Z,1003.53
2019-01-16T10:16:05.040Z,1003.61
2019-01-16T10:17:04.983Z,1003.57
2019-01-16T10:18:05.057Z,1003.56
2019-01-16T10:19:04.957Z,1003.60
2019-01-16T10:20:05.002Z,1003.57
2019-01-16T10:21:04.939Z,1003.52
2019-01-16T10:22:04.979Z,1003.48
2019-01-16T10:23:04.921Z,1003.55
2019-01-16T10:24:06.019Z,1003.47
2019-01-16T10:25:04.930Z,1003.46
2019-01-16T10:26:12.925Z,1003.39
2019-01-16T10:27:04.878Z,1003.44
2019-01-16T10:28:12.397Z,1003.46
2019-01-16T10:29:04.858Z,1003.36
2019-01-16T10:30:06.902Z,1003.37
2019-01-16T10:31:04.842Z,1003.42
2019-01-16T10:32:04.841Z,1003.35
2019-01-16T10:33:04.815Z,1003.39
2019-01-16T10:34:04.860Z,1003.34
2019-01-16T10:35:04.780Z,1003.36
2019-01-16T10:36:04.908Z,1003.33
2019-01-16T10:37:04.765Z,1003.33
2019-01-16T10:38:04.780Z,1003.33
2019-01-16T10:39:04.739Z,1003.34
2019-01-16T10:40:04.796Z,1003.36
2019-01-16T10:41:04.774Z,1003.32
2019-01-16T10:42:04.811Z,1003.33
2019-01-16T10:43:04.701Z,1003.35
2019-01-16T10:44:04.720Z,1003.29
2019-01-16T10:45:04.681Z,1003.35
2019-01-16T10:46:04.772Z,1003.29
2019-01-16T10:47:04.680Z,1003.18
2019-01-16T10:48:04.747Z,1003.13
2019-01-16T10:49:04.630Z,1003.13
2019-01-16T10:50:04.657Z,1003.18
2019-01-16T10:51:05.278Z,1003.11
2019-01-16T10:52:04.672Z,1003.17
2019-01-16T10:53:04.605Z,1003.17
2019-01-16T10:54:04.691Z,1003.18
2019-01-16T10:55:04.574Z,1003.14
2019-01-16T10:56:04.626Z,1003.14
2019-01-16T10:57:04.556Z,1003.17
2019-01-16T10:58:04.611Z,1003.13
2019-01-16T10:59:04.530Z,1003.08
2019-01-16T11:00:04.643Z,1003.08
2019-01-16T11:01:04.516Z,1003.06
2019-01-16T11:02:04.552Z,1003.03
2019-01-16T11:03:04.485Z,1003.02
2019-01-16T11:04:04.572Z,1003.02
2019-01-16T11:05:04.457Z,1002.99
2019-01-16T11:06:04.488Z,1002.99
2019-01-16T11:07:04.431Z,1003.00
2019-01-16T11:08:04.504Z,1002.99
2019-01-16T11:09:04.411Z,1003.01
2019-01-16T11:10:04.502Z,1002.99
2019-01-16T11:11:04.423Z,1003.03
2019-01-16T11:12:04.420Z,1002.94
2019-01-16T11:13:04.367Z,1002.95
2019-01-16T11:14:05.466Z,1002.88
2019-01-16T11:15:04.351Z,1002.92
2019-01-16T11:16:05.362Z,1002.96
2019-01-16T11:17:04.361Z,1002.84
2019-01-16T11:18:04.354Z,1002.80
2019-01-16T11:19:04.299Z,1002.76
2019-01-16T11:20:04.356Z,1002.81
2019-01-16T11:21:10.812Z,1002.73
2019-01-16T11:22:05.354Z,1002.81
2019-01-16T11:23:04.252Z,1002.75
2019-01-16T11:24:04.293Z,1002.81
2019-01-16T11:25:04.232Z,1002.60
2019-01-16T11:26:04.290Z,1002.76
2019-01-16T11:27:04.625Z,1002.81
2019-01-16T11:28:04.333Z,1002.80
2019-01-16T11:29:04.191Z,1002.71
2019-01-16T11:30:04.226Z,1002.71
2019-01-16T11:31:04.172Z,1002.64
2019-01-16T11:32:04.366Z,1002.64
2019-01-16T11:33:04.147Z,1002.62
2019-01-16T11:34:04.262Z,1002.55
2019-01-16T11:35:04.523Z,1002.54
2019-01-16T11:36:04.153Z,1002.52
2019-01-16T11:37:04.156Z,1002.57
2019-01-16T11:38:04.180Z,1002.53
2019-01-16T11:39:04.087Z,1002.47
2019-01-16T11:40:04.809Z,1002.52
2019-01-16T11:41:04.059Z,1002.46
2019-01-16T11:42:04.118Z,1002.45
2019-01-16T11:43:04.038Z,1002.41
2019-01-16T11:44:04.107Z,1002.33
2019-01-16T11:45:04.012Z,1002.35
2019-01-16T11:46:04.029Z,1002.40
2019-01-16T11:47:04.013Z,1002.36
2019-01-16T11:48:04.038Z,1002.38
2019-01-16T11:49:03.973Z,1002.32
2019-01-16T11:50:04.057Z,1002.31
2019-01-16T11:51:03.947Z,1002.31
2019-01-16T11:52:03.988Z,1002.23
2019-01-16T11:53:03.926Z,1002.21
2019-01-16T11:54:03.990Z,1002.25
2019-01-16T11:55:03.903Z,1002.12
2019-01-16T11:56:03.999Z,1002.10
2019-01-16T11:57:04.308Z,1002.11
2019-01-16T11:58:03.912Z,1002.09
2019-01-16T11:59:03.868Z,1002.04
2019-01-16T12:00:03.924Z,1002.06
2019-01-16T12:01:03.859Z,1002.15
2019-01-16T12:02:03.956Z,1002.14
2019-01-16T12:03:03.823Z,1002.04
2019-01-16T12:04:04.242Z,1002.13
2019-01-16T12:05:03.799Z,1002.15